sensor_id;sensor_type;location;lat;lon;timestamp;pressure;altitude;pressure_sealevel;temperature;humidity
18988;BME280;5494;51.796;10.952;2023-01-27T00:01:23;99476.66;;;0.95;100.00
18988;BME280;5494;51.796;10.952;2023-01-27T00:03:52;99479.22;;;0.95;100.00
18988;BME280;5494;51.796;10.952;2023-01-27T00:06:20;99471.50;;;0.98;100.00
18988;BME280;5494;51.796;10.952;2023-01-27T00:08:48;99478.31;;;1.00;100.00
18988;BME280;5494;51.796;10.952;2023-01-27T00:11:16;99481.75;;;0.96;100.00
18988;BME280;5494;51.796;10.952;2023-01-27T00:14:02;99474.09;;;0.95;100.00
18988;BME280;5494;51.796;10.952;2023-01-27T00:16:30;99478.31;;;0.99;100.00
18988;BME280;5494;51.796;10.952;2023-01-27T00:18:59;99465.53;;;0.97;100.00
18988;BME280;5494;51.796;10.952;2023-01-27T00:21:27;99476.59;;;1.07;100.00
18988;BME280;5494;51.796;10.952;2023-01-27T00:24:27;99468.94;;;1.01;100.00
18988;BME280;5494;51.796;10.952;2023-01-27T00:27:07;99478.31;;;0.99;100.00
18988;BME280;5494;51.796;10.952;2023-01-27T00:29:38;99474.84;;;1.13;100.00
18988;BME280;5494;51.796;10.952;2023-01-27T00:32:07;99472.28;;;1.15;100.00
18988;BME280;5494;51.796;10.952;2023-01-27T00:34:54;99469.69;;;1.18;100.00
18988;BME280;5494;51.796;10.952;2023-01-27T00:37:22;99473.13;;;1.14;100.00
18988;BME280;5494;51.796;10.952;2023-01-27T00:39:50;99469.72;;;1.15;100.00
18988;BME280;5494;51.796;10.952;2023-01-27T00:42:18;99472.28;;;1.12;100.00
18988;BME280;5494;51.796;10.952;2023-01-27T00:44:48;99471.44;;;1.13;100.00
18988;BME280;5494;51.796;10.952;2023-01-27T00:47:30;99473.22;;;1.02;100.00
18988;BME280;5494;51.796;10.952;2023-01-27T00:50:00;99472.38;;;0.91;100.00
18988;BME280;5494;51.796;10.952;2023-01-27T00:52:28;99478.41;;;0.81;100.00
18988;BME280;5494;51.796;10.952;2023-01-27T00:54:56;99479.28;;;0.75;100.00
18988;BME280;5494;51.796;10.952;2023-01-27T00:57:24;99476.72;;;0.70;100.00
18988;BME280;5494;51.796;10.952;2023-01-27T00:59:52;99476.72;;;0.72;100.00
18988;BME280;5494;51.796;10.952;2023-01-27T01:02:20;99480.97;;;0.82;100.00
18988;BME280;5494;51.796;10.952;2023-01-27T01:04:49;99488.63;;;0.87;100.00
18988;BME280;5494;51.796;10.952;2023-01-27T01:07:19;99485.22;;;0.89;100.00
18988;BME280;5494;51.796;10.952;2023-01-27T01:09:47;99486.03;;;0.93;100.00
18988;BME280;5494;51.796;10.952;2023-01-27T01:12:15;99488.59;;;0.96;100.00
18988;BME280;5494;51.796;10.952;2023-01-27T01:14:43;99479.16;;;1.10;100.00
18988;BME280;5494;51.796;10.952;2023-01-27T01:17:11;99480.81;;;1.11;100.00
18988;BME280;5494;51.796;10.952;2023-01-27T01:19:39;99483.38;;;1.17;100.00
18988;BME280;5494;51.796;10.952;2023-01-27T01:22:07;99478.28;;;1.08;100.00
18988;BME280;5494;51.796;10.952;2023-01-27T01:24:37;99474.84;;;1.12;100.00
18988;BME280;5494;51.796;10.952;2023-01-27T01:27:05;99476.59;;;1.04;100.00
18988;BME280;5494;51.796;10.952;2023-01-27T01:29:33;99484.25;;;1.10;100.00
18988;BME280;5494;51.796;10.952;2023-01-27T01:32:01;99479.16;;;1.08;100.00
18988;BME280;5494;51.796;10.952;2023-01-27T01:34:30;99479.13;;;1.17;100.00
18988;BME280;5494;51.796;10.952;2023-01-27T01:36:58;99485.91;;;1.20;100.00
18988;BME280;5494;51.796;10.952;2023-01-27T01:39:26;99485.06;;;1.18;100.00
18988;BME280;5494;51.796;10.952;2023-01-27T01:41:56;99490.16;;;1.24;100.00
18988;BME280;5494;51.796;10.952;2023-01-27T01:44:28;99486.72;;;1.27;100.00
18988;BME280;5494;51.796;10.952;2023-01-27T01:46:58;99482.47;;;1.26;100.00
18988;BME280;5494;51.796;10.952;2023-01-27T01:49:32;99485.06;;;1.21;100.00
18988;BME280;5494;51.796;10.952;2023-01-27T01:52:08;99486.75;;;1.22;100.00
18988;BME280;5494;51.796;10.952;2023-01-27T01:54:41;99488.47;;;1.22;100.00
18988;BME280;5494;51.796;10.952;2023-01-27T01:57:16;99492.69;;;1.26;100.00
18988;BME280;5494;51.796;10.952;2023-01-27T01:59:53;99491.84;;;1.28;100.00
18988;BME280;5494;51.796;10.952;2023-01-27T02:02:24;99498.72;;;1.18;100.00
18988;BME280;5494;51.796;10.952;2023-01-27T02:04:58;99491.91;;;1.16;100.00
18988;BME280;5494;51.796;10.952;2023-01-27T02:07:33;99490.16;;;1.23;100.00
18988;BME280;5494;51.796;10.952;2023-01-27T02:10:03;99500.44;;;1.15;100.00
18988;BME280;5494;51.796;10.952;2023-01-27T02:12:36;99500.41;;;1.21;100.00
18988;BME280;5494;51.796;10.952;2023-01-27T02:15:08;99494.44;;;1.19;100.00
18988;BME280;5494;51.796;10.952;2023-01-27T02:17:37;99498.72;;;1.20;100.00
18988;BME280;5494;51.796;10.952;2023-01-27T02:20:14;99501.25;;;1.18;100.00
18988;BME280;5494;51.796;10.952;2023-01-27T02:22:52;99493.63;;;1.17;100.00
18988;BME280;5494;51.796;10.952;2023-01-27T02:25:37;99502.97;;;1.19;100.00
18988;BME280;5494;51.796;10.952;2023-01-27T02:28:07;99503.00;;;1.16;100.00
18988;BME280;5494;51.796;10.952;2023-01-27T02:30:35;99499.56;;;1.24;100.00
18988;BME280;5494;51.796;10.952;2023-01-27T02:33:09;99502.97;;;1.18;100.00
18988;BME280;5494;51.796;10.952;2023-01-27T02:35:48;99503.78;;;1.26;100.00
18988;BME280;5494;51.796;10.952;2023-01-27T02:38:20;99505.53;;;1.23;100.00
18988;BME280;5494;51.796;10.952;2023-01-27T02:40:54;99516.66;;;1.15;100.00
18988;BME280;5494;51.796;10.952;2023-01-27T02:43:24;99518.38;;;1.13;100.00
18988;BME280;5494;51.796;10.952;2023-01-27T02:45:52;99523.47;;;1.21;100.00
18988;BME280;5494;51.796;10.952;2023-01-27T02:48:20;99530.28;;;1.19;100.00
18988;BME280;5494;51.796;10.952;2023-01-27T02:50:48;99525.22;;;1.08;100.00
18988;BME280;5494;51.796;10.952;2023-01-27T02:53:16;99532.03;;;1.15;100.00
18988;BME280;5494;51.796;10.952;2023-01-27T02:55:44;99526.91;;;1.17;100.00
18988;BME280;5494;51.796;10.952;2023-01-27T02:58:13;99531.13;;;1.19;100.00
18988;BME280;5494;51.796;10.952;2023-01-27T03:00:47;99531.09;;;1.27;100.00
18988;BME280;5494;51.796;10.952;2023-01-27T03:03:15;99533.69;;;1.24;100.00
18988;BME280;5494;51.796;10.952;2023-01-27T03:05:43;99529.41;;;1.26;100.00
18988;BME280;5494;51.796;10.952;2023-01-27T03:08:12;99533.69;;;1.21;100.00
18988;BME280;5494;51.796;10.952;2023-01-27T03:10:41;99532.84;;;1.22;100.00
18988;BME280;5494;51.796;10.952;2023-01-27T03:13:09;99536.25;;;1.24;100.00
18988;BME280;5494;51.796;10.952;2023-01-27T03:15:40;99536.25;;;1.21;100.00
18988;BME280;5494;51.796;10.952;2023-01-27T03:18:25;99537.13;;;1.22;100.00
18988;BME280;5494;51.796;10.952;2023-01-27T03:21:00;99542.22;;;1.20;100.00
18988;BME280;5494;51.796;10.952;2023-01-27T03:23:30;99542.22;;;1.18;100.00
18988;BME280;5494;51.796;10.952;2023-01-27T03:26:05;99547.34;;;1.22;100.00
18988;BME280;5494;51.796;10.952;2023-01-27T03:28:36;99540.53;;;1.19;100.00
18988;BME280;5494;51.796;10.952;2023-01-27T03:31:14;99540.50;;;1.28;100.00
18988;BME280;5494;51.796;10.952;2023-01-27T03:33:57;99537.13;;;1.17;100.00
18988;BME280;5494;51.796;10.952;2023-01-27T03:36:43;99558.41;;;1.25;100.00
18988;BME280;5494;51.796;10.952;2023-01-27T03:39:29;99555.06;;;1.17;100.00
18988;BME280;5494;51.796;10.952;2023-01-27T03:42:15;99563.59;;;1.16;100.00
18988;BME280;5494;51.796;10.952;2023-01-27T03:45:01;99559.28;;;1.18;100.00
18988;BME280;5494;51.796;10.952;2023-01-27T03:47:48;99553.34;;;1.17;100.00
18988;BME280;5494;51.796;10.952;2023-01-27T03:50:16;99555.03;;;1.23;100.00
18988;BME280;5494;51.796;10.952;2023-01-27T03:52:45;99555.88;;;1.19;100.00
18988;BME280;5494;51.796;10.952;2023-01-27T03:55:34;99550.72;;;1.27;100.00
18988;BME280;5494;51.796;10.952;2023-01-27T03:58:03;99555.00;;;1.26;100.00
18988;BME280;5494;51.796;10.952;2023-01-27T04:00:41;99555.03;;;1.23;100.00
18988;BME280;5494;51.796;10.952;2023-01-27T04:03:10;99555.00;;;1.29;100.00
18988;BME280;5494;51.796;10.952;2023-01-27T04:05:56;99555.84;;;1.28;100.00
18988;BME280;5494;51.796;10.952;2023-01-27T04:08:42;99557.56;;;1.25;100.00
18988;BME280;5494;51.796;10.952;2023-01-27T04:11:10;99556.72;;;1.27;100.00
18988;BME280;5494;51.796;10.952;2023-01-27T04:14:00;99549.88;;;1.26;100.00
18988;BME280;5494;51.796;10.952;2023-01-27T04:16:29;99551.63;;;1.21;100.00
18988;BME280;5494;51.796;10.952;2023-01-27T04:18:58;99553.28;;;1.28;100.00
18988;BME280;5494;51.796;10.952;2023-01-27T04:21:26;99559.28;;;1.29;100.00
18988;BME280;5494;51.796;10.952;2023-01-27T04:23:54;99560.97;;;1.27;100.00
18988;BME280;5494;51.796;10.952;2023-01-27T04:26:23;99560.19;;;1.17;100.00
18988;BME280;5494;51.796;10.952;2023-01-27T04:28:52;99560.13;;;1.31;100.00
18988;BME280;5494;51.796;10.952;2023-01-27T04:31:22;99554.16;;;1.29;100.00
18988;BME280;5494;51.796;10.952;2023-01-27T04:33:50;99560.94;;;1.34;100.00
18988;BME280;5494;51.796;10.952;2023-01-27T04:36:20;99556.75;;;1.24;100.00
18988;BME280;5494;51.796;10.952;2023-01-27T04:38:48;99559.25;;;1.32;100.00
18988;BME280;5494;51.796;10.952;2023-01-27T04:41:16;99553.28;;;1.28;100.00
18988;BME280;5494;51.796;10.952;2023-01-27T04:43:44;99558.47;;;1.16;100.00
18988;BME280;5494;51.796;10.952;2023-01-27T04:46:12;99561.00;;;1.22;100.00
18988;BME280;5494;51.796;10.952;2023-01-27T04:48:40;99570.38;;;1.31;100.00
18988;BME280;5494;51.796;10.952;2023-01-27T04:51:08;99565.25;;;1.25;100.00
18988;BME280;5494;51.796;10.952;2023-01-27T04:53:37;99573.78;;;1.31;100.00
18988;BME280;5494;51.796;10.952;2023-01-27T04:56:18;99577.16;;;1.33;100.00
18988;BME280;5494;51.796;10.952;2023-01-27T04:58:48;99581.47;;;1.27;100.00
18988;BME280;5494;51.796;10.952;2023-01-27T05:01:16;99589.13;;;1.25;100.00
18988;BME280;5494;51.796;10.952;2023-01-27T05:03:45;99584.88;;;1.26;100.00
18988;BME280;5494;51.796;10.952;2023-01-27T05:06:14;99587.47;;;1.21;100.00
18988;BME280;5494;51.796;10.952;2023-01-27T05:08:43;99592.59;;;1.24;100.00
18988;BME280;5494;51.796;10.952;2023-01-27T05:11:12;99589.19;;;1.14;100.00
18988;BME280;5494;51.796;10.952;2023-01-27T05:13:40;99585.78;;;1.14;100.00
18988;BME280;5494;51.796;10.952;2023-01-27T05:16:12;99587.47;;;1.15;100.00
18988;BME280;5494;51.796;10.952;2023-01-27T05:18:44;99590.06;;;1.10;100.00
18988;BME280;5494;51.796;10.952;2023-01-27T05:21:15;99592.59;;;1.15;100.00
18988;BME280;5494;51.796;10.952;2023-01-27T05:23:45;99596.00;;;1.11;100.00
18988;BME280;5494;51.796;10.952;2023-01-27T05:26:17;99596.88;;;1.08;100.00
18988;BME280;5494;51.796;10.952;2023-01-27T05:28:47;99596.94;;;0.96;100.00
18988;BME280;5494;51.796;10.952;2023-01-27T05:31:18;99597.78;;;0.97;100.00
18988;BME280;5494;51.796;10.952;2023-01-27T05:33:49;99607.16;;;0.96;100.00
18988;BME280;5494;51.796;10.952;2023-01-27T05:36:20;99611.44;;;0.96;100.00
18988;BME280;5494;51.796;10.952;2023-01-27T05:38:50;99616.50;;;1.05;100.00
18988;BME280;5494;51.796;10.952;2023-01-27T05:41:19;99625.03;;;1.13;100.00
18988;BME280;5494;51.796;10.952;2023-01-27T05:43:52;99619.03;;;1.20;100.00
18988;BME280;5494;51.796;10.952;2023-01-27T05:46:22;99614.78;;;1.13;100.00
18988;BME280;5494;51.796;10.952;2023-01-27T05:48:53;99621.63;;;1.17;100.00
18988;BME280;5494;51.796;10.952;2023-01-27T05:51:23;99627.56;;;1.21;100.00
18988;BME280;5494;51.796;10.952;2023-01-27T05:53:53;99624.19;;;1.17;100.00
18988;BME280;5494;51.796;10.952;2023-01-27T05:56:22;99623.34;;;1.10;100.00
18988;BME280;5494;51.796;10.952;2023-01-27T05:58:53;99631.84;;;1.11;100.00
18988;BME280;5494;51.796;10.952;2023-01-27T06:01:23;99630.16;;;1.13;100.00
18988;BME280;5494;51.796;10.952;2023-01-27T06:03:52;99631.03;;;1.10;100.00
18988;BME280;5494;51.796;10.952;2023-01-27T06:06:22;99643.78;;;1.30;100.00
18988;BME280;5494;51.796;10.952;2023-01-27T06:08:52;99641.22;;;1.29;100.00
18988;BME280;5494;51.796;10.952;2023-01-27T06:11:21;99637.81;;;1.19;100.00
18988;BME280;5494;51.796;10.952;2023-01-27T06:13:51;99645.47;;;1.25;100.00
18988;BME280;5494;51.796;10.952;2023-01-27T06:16:21;99645.50;;;1.24;100.00
18988;BME280;5494;51.796;10.952;2023-01-27T06:18:50;99650.63;;;1.22;100.00
18988;BME280;5494;51.796;10.952;2023-01-27T06:21:18;99648.94;;;1.16;100.00
18988;BME280;5494;51.796;10.952;2023-01-27T06:23:47;99648.91;;;1.30;100.00
18988;BME280;5494;51.796;10.952;2023-01-27T06:26:18;99651.44;;;1.35;100.00
18988;BME280;5494;51.796;10.952;2023-01-27T06:28:47;99652.25;;;1.43;100.00
18988;BME280;5494;51.796;10.952;2023-01-27T06:31:19;99659.13;;;1.36;100.00
18988;BME280;5494;51.796;10.952;2023-01-27T06:33:48;99659.13;;;1.35;100.00
18988;BME280;5494;51.796;10.952;2023-01-27T06:36:19;99661.66;;;1.39;100.00
18988;BME280;5494;51.796;10.952;2023-01-27T06:38:48;99655.72;;;1.31;100.00
18988;BME280;5494;51.796;10.952;2023-01-27T06:41:19;99662.53;;;1.35;100.00
18988;BME280;5494;51.796;10.952;2023-01-27T06:43:47;99665.94;;;1.34;100.00
18988;BME280;5494;51.796;10.952;2023-01-27T06:46:15;99666.81;;;1.36;100.00
18988;BME280;5494;51.796;10.952;2023-01-27T06:48:43;99663.38;;;1.42;100.00
18988;BME280;5494;51.796;10.952;2023-01-27T06:51:12;99663.34;;;1.40;100.00
18988;BME280;5494;51.796;10.952;2023-01-27T06:53:40;99671.03;;;1.46;100.00
18988;BME280;5494;51.796;10.952;2023-01-27T06:56:08;99670.22;;;1.38;100.00
18988;BME280;5494;51.796;10.952;2023-01-27T06:58:37;99667.63;;;1.41;100.00
18988;BME280;5494;51.796;10.952;2023-01-27T07:01:05;99672.75;;;1.41;100.00
18988;BME280;5494;51.796;10.952;2023-01-27T07:03:37;99663.38;;;1.45;100.00
18988;BME280;5494;51.796;10.952;2023-01-27T07:06:08;99676.16;;;1.43;100.00
18988;BME280;5494;51.796;10.952;2023-01-27T07:08:36;99677.00;;;1.39;100.00
18988;BME280;5494;51.796;10.952;2023-01-27T07:11:04;99680.44;;;1.43;100.00
18988;BME280;5494;51.796;10.952;2023-01-27T07:13:32;99679.56;;;1.45;100.00
18988;BME280;5494;51.796;10.952;2023-01-27T07:16:02;99684.69;;;1.51;100.00
18988;BME280;5494;51.796;10.952;2023-01-27T07:18:30;99688.94;;;1.46;100.00
18988;BME280;5494;51.796;10.952;2023-01-27T07:20:58;99686.41;;;1.49;100.00
18988;BME280;5494;51.796;10.952;2023-01-27T07:23:27;99695.81;;;1.43;100.00
18988;BME280;5494;51.796;10.952;2023-01-27T07:25:54;99694.97;;;1.44;100.00
18988;BME280;5494;51.796;10.952;2023-01-27T07:28:25;99703.47;;;1.46;100.00
18988;BME280;5494;51.796;10.952;2023-01-27T07:30:53;99703.50;;;1.41;100.00
18988;BME280;5494;51.796;10.952;2023-01-27T07:33:22;99692.38;;;1.47;100.00
18988;BME280;5494;51.796;10.952;2023-01-27T07:35:50;99696.63;;;1.49;100.00
18988;BME280;5494;51.796;10.952;2023-01-27T07:38:18;99698.34;;;1.50;100.00
18988;BME280;5494;51.796;10.952;2023-01-27T07:40:46;99702.59;;;1.56;100.00
18988;BME280;5494;51.796;10.952;2023-01-27T07:43:14;99703.44;;;1.53;100.00
18988;BME280;5494;51.796;10.952;2023-01-27T07:45:42;99700.03;;;1.57;100.00
18988;BME280;5494;51.796;10.952;2023-01-27T07:48:14;99706.00;;;1.64;100.00
18988;BME280;5494;51.796;10.952;2023-01-27T07:50:44;99702.56;;;1.67;100.00
18988;BME280;5494;51.796;10.952;2023-01-27T07:53:12;99706.81;;;1.68;100.00
18988;BME280;5494;51.796;10.952;2023-01-27T07:55:40;99712.81;;;1.68;100.00
18988;BME280;5494;51.796;10.952;2023-01-27T07:58:08;99710.25;;;1.64;100.00
18988;BME280;5494;51.796;10.952;2023-01-27T08:00:36;99717.06;;;1.68;100.00
18988;BME280;5494;51.796;10.952;2023-01-27T08:03:04;99720.50;;;1.73;100.00
18988;BME280;5494;51.796;10.952;2023-01-27T08:05:34;99727.31;;;1.75;100.00
18988;BME280;5494;51.796;10.952;2023-01-27T08:08:05;99724.75;;;1.77;100.00
18988;BME280;5494;51.796;10.952;2023-01-27T08:10:33;99720.47;;;1.79;100.00
18988;BME280;5494;51.796;10.952;2023-01-27T08:13:01;99718.72;;;1.81;100.00
18988;BME280;5494;51.796;10.952;2023-01-27T08:15:29;99728.97;;;1.81;100.00
18988;BME280;5494;51.796;10.952;2023-01-27T08:17:58;99729.00;;;1.76;100.00
18988;BME280;5494;51.796;10.952;2023-01-27T08:20:28;99727.28;;;1.83;100.00
18988;BME280;5494;51.796;10.952;2023-01-27T08:22:56;99728.97;;;1.87;100.00
18988;BME280;5494;51.796;10.952;2023-01-27T08:25:26;99723.78;;;2.01;100.00
18988;BME280;5494;51.796;10.952;2023-01-27T08:27:55;99723.72;;;2.17;100.00
18988;BME280;5494;51.796;10.952;2023-01-27T08:30:24;99721.16;;;2.19;100.00
18988;BME280;5494;51.796;10.952;2023-01-27T08:32:52;99724.56;;;2.21;100.00
18988;BME280;5494;51.796;10.952;2023-01-27T08:35:20;99731.41;;;2.16;100.00
18988;BME280;5494;51.796;10.952;2023-01-27T08:37:48;99739.91;;;2.22;100.00
18988;BME280;5494;51.796;10.952;2023-01-27T08:40:17;99741.63;;;2.22;100.00
18988;BME280;5494;51.796;10.952;2023-01-27T08:42:48;99749.34;;;2.20;100.00
18988;BME280;5494;51.796;10.952;2023-01-27T08:45:17;99745.94;;;2.20;100.00
18988;BME280;5494;51.796;10.952;2023-01-27T08:47:45;99747.66;;;2.16;100.00
18988;BME280;5494;51.796;10.952;2023-01-27T08:50:13;99754.50;;;2.14;100.00
18988;BME280;5494;51.796;10.952;2023-01-27T08:52:41;99755.31;;;2.22;100.00
18988;BME280;5494;51.796;10.952;2023-01-27T08:55:09;99757.00;;;2.25;100.00
18988;BME280;5494;51.796;10.952;2023-01-27T08:57:38;99757.03;;;2.19;100.00
18988;BME280;5494;51.796;10.952;2023-01-27T09:00:10;99761.28;;;2.27;100.00
18988;BME280;5494;51.796;10.952;2023-01-27T09:02:39;99763.03;;;2.16;100.00
18988;BME280;5494;51.796;10.952;2023-01-27T09:05:07;99764.72;;;2.23;100.00
18988;BME280;5494;51.796;10.952;2023-01-27T09:07:35;99764.72;;;2.22;100.00
18988;BME280;5494;51.796;10.952;2023-01-27T09:10:05;99769.84;;;2.25;100.00
18988;BME280;5494;51.796;10.952;2023-01-27T09:12:45;99767.28;;;2.22;100.00
18988;BME280;5494;51.796;10.952;2023-01-27T09:15:15;99767.28;;;2.26;100.00
18988;BME280;5494;51.796;10.952;2023-01-27T09:17:42;99769.81;;;2.29;100.00
18988;BME280;5494;51.796;10.952;2023-01-27T09:20:11;99770.69;;;2.25;100.00
18988;BME280;5494;51.796;10.952;2023-01-27T09:22:41;99780.03;;;2.42;100.00
18988;BME280;5494;51.796;10.952;2023-01-27T09:25:13;99782.56;;;2.45;100.00
18988;BME280;5494;51.796;10.952;2023-01-27T09:27:42;99779.16;;;2.44;100.00
18988;BME280;5494;51.796;10.952;2023-01-27T09:30:13;99785.16;;;2.42;100.00
18988;BME280;5494;51.796;10.952;2023-01-27T09:32:43;99787.69;;;2.43;100.00
18988;BME280;5494;51.796;10.952;2023-01-27T09:35:11;99780.00;;;2.48;100.00
18988;BME280;5494;51.796;10.952;2023-01-27T09:37:46;99784.22;;;2.53;100.00
18988;BME280;5494;51.796;10.952;2023-01-27T09:40:28;99787.63;;;2.61;100.00
18988;BME280;5494;51.796;10.952;2023-01-27T09:43:39;99785.06;;;2.57;100.00
18988;BME280;5494;51.796;10.952;2023-01-27T09:46:53;99789.28;;;2.65;100.00
18988;BME280;5494;51.796;10.952;2023-01-27T09:50:02;99792.72;;;2.66;100.00
18988;BME280;5494;51.796;10.952;2023-01-27T09:53:00;99798.75;;;2.62;100.00
18988;BME280;5494;51.796;10.952;2023-01-27T09:55:43;99797.88;;;2.61;100.00
18988;BME280;5494;51.796;10.952;2023-01-27T09:58:24;99801.31;;;2.60;100.00
18988;BME280;5494;51.796;10.952;2023-01-27T10:01:05;99796.16;;;2.62;100.00
18988;BME280;5494;51.796;10.952;2023-01-27T10:04:01;99802.13;;;2.64;100.00
18988;BME280;5494;51.796;10.952;2023-01-27T10:06:50;99801.28;;;2.66;100.00
18988;BME280;5494;51.796;10.952;2023-01-27T10:09:49;99797.00;;;2.67;100.00
18988;BME280;5494;51.796;10.952;2023-01-27T10:12:40;99806.44;;;2.60;100.00
18988;BME280;5494;51.796;10.952;2023-01-27T10:15:34;99797.84;;;2.67;100.00
18988;BME280;5494;51.796;10.952;2023-01-27T10:18:22;99794.47;;;2.62;100.00
18988;BME280;5494;51.796;10.952;2023-01-27T10:21:01;99791.81;;;2.73;100.00
18988;BME280;5494;51.796;10.952;2023-01-27T10:23:45;99795.25;;;2.75;100.00
18988;BME280;5494;51.796;10.952;2023-01-27T10:26:29;99794.38;;;2.71;100.00
18988;BME280;5494;51.796;10.952;2023-01-27T10:29:07;99787.50;;;2.80;100.00
18988;BME280;5494;51.796;10.952;2023-01-27T10:31:41;99785.00;;;2.69;100.00
18988;BME280;5494;51.796;10.952;2023-01-27T10:34:26;99802.09;;;2.74;100.00
18988;BME280;5494;51.796;10.952;2023-01-27T10:37:11;99792.63;;;2.78;100.00
18988;BME280;5494;51.796;10.952;2023-01-27T10:39:55;99793.53;;;2.71;100.00
18988;BME280;5494;51.796;10.952;2023-01-27T10:42:35;99801.22;;;2.74;100.00
18988;BME280;5494;51.796;10.952;2023-01-27T10:45:21;99802.91;;;2.78;100.00
18988;BME280;5494;51.796;10.952;2023-01-27T10:48:20;99803.78;;;2.72;100.00
18988;BME280;5494;51.796;10.952;2023-01-27T10:50:56;99799.56;;;2.67;100.00
18988;BME280;5494;51.796;10.952;2023-01-27T10:53:33;99797.00;;;2.67;100.00
18988;BME280;5494;51.796;10.952;2023-01-27T10:56:11;99798.66;;;2.71;100.00
18988;BME280;5494;51.796;10.952;2023-01-27T10:58:51;99796.06;;;2.77;100.00
18988;BME280;5494;51.796;10.952;2023-01-27T11:01:29;99797.75;;;2.78;100.00
18988;BME280;5494;51.796;10.952;2023-01-27T11:04:06;99796.03;;;2.83;100.00
18988;BME280;5494;51.796;10.952;2023-01-27T11:06:40;99794.38;;;2.76;100.00
18988;BME280;5494;51.796;10.952;2023-01-27T11:09:23;99791.78;;;2.81;100.00
18988;BME280;5494;51.796;10.952;2023-01-27T11:11:57;99783.25;;;2.71;100.00
18988;BME280;5494;51.796;10.952;2023-01-27T11:14:30;99791.81;;;2.74;100.00
18988;BME280;5494;51.796;10.952;2023-01-27T11:17:11;99778.94;;;2.81;100.00
18988;BME280;5494;51.796;10.952;2023-01-27T11:19:54;99782.31;;;2.87;100.00
18988;BME280;5494;51.796;10.952;2023-01-27T11:22:34;99778.88;;;2.88;100.00
18988;BME280;5494;51.796;10.952;2023-01-27T11:25:15;99773.75;;;2.88;100.00
18988;BME280;5494;51.796;10.952;2023-01-27T11:28:16;99774.59;;;2.87;100.00
18988;BME280;5494;51.796;10.952;2023-01-27T11:30:55;99776.28;;;2.94;100.00
18988;BME280;5494;51.796;10.952;2023-01-27T11:33:42;99778.84;;;2.97;100.00
18988;BME280;5494;51.796;10.952;2023-01-27T11:36:17;99772.78;;;3.03;100.00
18988;BME280;5494;51.796;10.952;2023-01-27T11:38:46;99777.09;;;2.99;100.00
18988;BME280;5494;51.796;10.952;2023-01-27T11:41:14;99775.44;;;2.91;100.00
18988;BME280;5494;51.796;10.952;2023-01-27T11:43:43;99763.44;;;2.91;100.00
18988;BME280;5494;51.796;10.952;2023-01-27T11:46:18;99766.81;;;2.99;100.00
18988;BME280;5494;51.796;10.952;2023-01-27T11:48:50;99758.34;;;2.87;100.00
18988;BME280;5494;51.796;10.952;2023-01-27T11:51:23;99766.03;;;2.90;100.00
18988;BME280;5494;51.796;10.952;2023-01-27T11:54:02;99761.78;;;2.87;100.00
18988;BME280;5494;51.796;10.952;2023-01-27T11:56:34;99762.59;;;2.92;100.00
18988;BME280;5494;51.796;10.952;2023-01-27T11:59:08;99766.78;;;3.04;100.00
18988;BME280;5494;51.796;10.952;2023-01-27T12:01:47;99770.44;;;2.71;100.00
18988;BME280;5494;51.796;10.952;2023-01-27T12:04:23;99759.44;;;2.52;100.00
18988;BME280;5494;51.796;10.952;2023-01-27T12:07:00;99762.84;;;2.50;100.00
18988;BME280;5494;51.796;10.952;2023-01-27T12:09:34;99762.00;;;2.54;100.00
18988;BME280;5494;51.796;10.952;2023-01-27T12:12:19;99764.56;;;2.54;100.00
18988;BME280;5494;51.796;10.952;2023-01-27T12:14:51;99762.81;;;2.57;100.00
18988;BME280;5494;51.796;10.952;2023-01-27T12:17:31;99768.81;;;2.58;100.00
18988;BME280;5494;51.796;10.952;2023-01-27T12:20:06;99766.25;;;2.58;100.00
18988;BME280;5494;51.796;10.952;2023-01-27T12:22:45;99767.91;;;2.66;100.00
18988;BME280;5494;51.796;10.952;2023-01-27T12:25:19;99768.78;;;2.61;100.00
18988;BME280;5494;51.796;10.952;2023-01-27T12:27:52;99765.28;;;2.71;100.00
18988;BME280;5494;51.796;10.952;2023-01-27T12:30:25;99764.47;;;2.66;100.00
18988;BME280;5494;51.796;10.952;2023-01-27T12:32:55;99766.19;;;2.64;100.00
18988;BME280;5494;51.796;10.952;2023-01-27T12:35:28;99767.09;;;2.57;100.00
18988;BME280;5494;51.796;10.952;2023-01-27T12:38:01;99765.41;;;2.51;100.00
18988;BME280;5494;51.796;10.952;2023-01-27T12:40:32;99763.72;;;2.55;100.00
18988;BME280;5494;51.796;10.952;2023-01-27T12:43:12;99757.75;;;2.47;100.00
18988;BME280;5494;51.796;10.952;2023-01-27T12:45:43;99756.88;;;2.49;100.00
18988;BME280;5494;51.796;10.952;2023-01-27T12:48:18;99756.06;;;2.46;100.00
18988;BME280;5494;51.796;10.952;2023-01-27T12:50:56;99755.22;;;2.39;100.00
18988;BME280;5494;51.796;10.952;2023-01-27T12:53:30;99751.88;;;2.22;100.00
18988;BME280;5494;51.796;10.952;2023-01-27T12:56:03;99753.56;;;2.32;100.00
18988;BME280;5494;51.796;10.952;2023-01-27T12:58:39;99749.31;;;2.25;100.00
18988;BME280;5494;51.796;10.952;2023-01-27T13:01:28;99754.47;;;2.20;100.00
18988;BME280;5494;51.796;10.952;2023-01-27T13:04:00;99749.28;;;2.31;100.00
18988;BME280;5494;51.796;10.952;2023-01-27T13:06:37;99752.72;;;2.30;100.00
18988;BME280;5494;51.796;10.952;2023-01-27T13:09:25;99764.78;;;2.14;100.00
18988;BME280;5494;51.796;10.952;2023-01-27T13:11:57;99755.38;;;2.10;100.00
18988;BME280;5494;51.796;10.952;2023-01-27T13:14:29;99758.75;;;2.15;100.00
18988;BME280;5494;51.796;10.952;2023-01-27T13:17:00;99764.75;;;2.20;100.00
18988;BME280;5494;51.796;10.952;2023-01-27T13:19:36;99762.19;;;2.16;100.00
18988;BME280;5494;51.796;10.952;2023-01-27T13:22:16;99758.72;;;2.24;100.00
18988;BME280;5494;51.796;10.952;2023-01-27T13:24:50;99757.88;;;2.22;100.00
18988;BME280;5494;51.796;10.952;2023-01-27T13:27:22;99756.13;;;2.33;100.00
18988;BME280;5494;51.796;10.952;2023-01-27T13:29:58;99757.81;;;2.36;100.00
18988;BME280;5494;51.796;10.952;2023-01-27T13:32:35;99755.31;;;2.22;100.00